Portada
METAR-TAF:

METAR-TAF

Aeropuertos :

Aeropuerto Internacional de Haneda

Tokio-Haneda, Japón

latitud: 35-33N, longitud: 139-47E, altitud: 5 m

Observación

El informe se hizo hace 1 hora y 5 minutos, a las 05:00 UTC
Viento 19 kt del sur
Temperatura 32°C
Humedad 63%
Presión 1011 hPa
Visibilidad 10 km o más
Escasas nubes a una altura de 3000 ft

METAR: RJTT 210500Z 19019KT 9999 FEW030 32/24 Q1011 NOSIG RMK 1CU030 A2987

Hora: 15:05 (06:05 UTC)

Pronóstico

El informe se hizo hace 6 horas y 53 minutos, a las 23:12 UTC
Pronóstico válido del 21 a las 00 UTC al 22 a las 06 UTC
Viento 5 kt del este-sureste
Visibilidad 10 km o más
Escasas nubes a una altura de 1000 ft
Nubes dispersas a una altura de 1500 ft
Evolucionando progresivamente
del 21 a las 01 UTC al 21 a las 03 UTC
Viento 14 kt del sur

TAF: RJTT 202312Z 2100/2206 12005KT 9999 FEW010 SCT015 BECMG 2101/2103 18014KT

Observaciones y pronósticos meteorológicos de más de 4000 aeropuertos (mensajes METAR y TAF).

Los puntos amarillos y rojos representan las estaciones disponibles.

Ponga el ratón en el punto deseado para ver el nombre de la estación.

Haga clic para ver las observaciones y los pronósticos meteorológicos.

Para cambiar el mapa : haga clic en los botones verdes con una cruz de color negro para hacer un zoom, en el botón verde con un guión para alejar o en las flechas verdes para mapas adyacentes.


METAR-TAF: